Latest Coastal Weather Observations for Frederick Reef

IDQ60701

Issued at 7:41 am EST Sunday 22 January 2017 (issued every 10 minutes, with the page automatically refreshed every 10 minutes)

About coastal observations | Map of coastal stations | Coastal observations for QLD | Marine services | Other Formats
Station Details ID: 200701 Name: FREDERICK REEF Lat: -20.94 Lon: 154.40 Height: 4.9 m
Data from the previous 72 hours. | See also: Recent months for locations in Queensland
Date/Time
EST
Temp
°C
Wind Pressure Rain since
9am
mm
Weather Cloud Vis
km
Sea
Height
m
Swell
Dir  Spd
kts
Gust
kts
hPa Trend Height
m
Period
s
Dir
22/07:30am 27.6 SE 5 7 1011.9 - - - - - - - - -
22/07:00am 28.2 E 4 6 1011.4 - - - - - - - - -
22/06:30am 27.4 E 5 8 1011.0 - - - - - - - - -
22/06:00am 27.2 NNE 6 8 1010.5 - - - - - - - - -
22/05:30am 26.7 NNE 6 7 1010.2 - - - - - - - - -
22/05:00am 26.7 N 8 10 1009.6 - - - - - - - - -
22/04:30am 26.7 N 8 10 1009.4 - - - - - - - - -
22/04:00am 26.8 N 9 12 1009.1 - - - - - - - - -
22/03:30am 26.7 N 10 11 1009.0 - - - - - - - - -
22/03:00am 26.7 N 11 12 1009.0 - - - - - - - - -
22/02:30am 26.7 N 11 12 1009.2 - - - - - - - - -
22/02:00am 26.8 N 10 12 1009.2 - - - - - - - - -
22/01:30am 26.8 NNE 9 11 1009.4 - - - - - - - - -
22/01:00am 26.7 NNE 9 12 1009.5 - - - - - - - - -
22/12:30am 26.8 NE 12 14 1009.4 - - - - - - - - -
22/12:00am 27.0 NNE 10 11 1009.7 - - - - - - - - -
 
Date/Time
EST
Temp
°C
Wind Pressure Rain since
9am
mm
Weather Cloud Vis
km
Sea
Height
m
Swell
Dir  Spd
kts
Gust
kts
hPa Trend Height
m
Period
s
Dir
21/11:30pm 26.6 NNE 9 11 1010.2 - - - - - - - - -
21/11:00pm 26.9 NE 8 9 1010.4 - - - - - - - - -
21/10:30pm 26.9 ENE 10 11 1010.6 - - - - - - - - -
21/10:00pm 26.9 ENE 9 10 1010.5 - - - - - - - - -
21/09:30pm 27.0 S 7 10 1010.6 - - - - - - - - -
21/09:00pm 27.1 SSW 7 9 1010.2 - - - - - - - - -
21/08:30pm 27.2 S 8 9 1010.1 - - - - - - - - -
21/08:00pm 27.2 SSW 7 9 1009.7 - - - - - - - - -
21/07:30pm 27.4 WSW 5 7 1009.3 - - - - - - - - -
21/07:00pm 27.2 WSW 4 5 1009.2 - - - - - - - - -
21/06:30pm 27.5 CALM 0 0 1009.0 - - - - - - - - -
21/06:00pm 27.8 CALM 0 0 1008.7 - - - - - - - - -
21/05:30pm 29.8 CALM 0 0 1008.6 - - - - - - - - -
21/05:00pm 30.3 CALM 0 4 1008.2 - - - - - - - - -
21/04:30pm 28.8 CALM 0 3 1008.2 - - - - - - - - -
21/04:00pm 29.4 CALM 0 3 1008.0 - - - - - - - - -
21/03:30pm 28.8 NW 1 4 1008.2 - - - - - - - - -
21/03:00pm 29.0 CALM 0 3 1008.2 - - - - - - - - -
21/02:30pm 29.2 CALM 0 5 1008.5 - - - - - - - - -
21/02:00pm 28.8 N 1 9 1008.4 - - - - - - - - -
21/01:30pm 28.1 CALM 0 2 1008.5 - - - - - - - - -
21/01:00pm 28.1 CALM 0 3 1008.7 - - - - - - - - -
21/12:30pm 28.0 CALM 0 2 1009.1 - - - - - - - - -
21/12:00pm 28.2 CALM 0 3 1009.3 - - - - - - - - -
21/11:30am 28.1 CALM 0 2 1009.6 - - - - - - - - -
21/11:00am 28.0 CALM 0 3 1009.9 - - - - - - - - -
21/10:30am 27.9 CALM 0 3 1010.2 - - - - - - - - -
21/10:00am 28.1 N 4 9 1010.2 - - - - - - - - -
21/09:30am 27.7 N 9 11 1010.3 - - - - - - - - -
21/09:00am 27.9 N 10 11 1009.8 - - - - - - - - -
21/08:30am 27.9 N 9 11 1010.0 - - - - - - - - -
21/08:00am 27.9 NNE 9 11 1009.8 - - - - - - - - -
21/07:30am 28.1 NNE 7 8 1010.0 - - - - - - - - -
21/07:00am 27.8 NE 7 9 1009.9 - - - - - - - - -
21/06:30am 27.6 NNE 6 9 1009.9 - - - - - - - - -
21/06:00am 27.2 NNE 8 10 1009.6 - - - - - - - - -
21/05:30am 26.5 N 8 10 1009.2 - - - - - - - - -
21/05:00am 26.4 N 9 11 1008.5 - - - - - - - - -
21/04:30am 26.5 NNW 9 11 1008.2 - - - - - - - - -
21/04:00am 26.5 NNW 9 11 1008.0 - - - - - - - - -
21/03:30am 26.5 NNW 9 13 1008.0 - - - - - - - - -
21/03:00am 26.4 NNW 10 11 1007.9 - - - - - - - - -
21/02:30am 26.5 N 11 13 1008.1 - - - - - - - - -
21/02:00am 26.3 N 10 12 1008.4 - - - - - - - - -
21/01:30am 26.5 CALM 0 2 1008.6 - - - - - - - - -
21/01:00am 26.5 NE 1 13 1008.8 - - - - - - - - -
21/12:30am 26.7 NE 1 4 1009.2 - - - - - - - - -
21/12:00am 26.8 CALM 0 3 1009.1 - - - - - - - - -
 
Date/Time
EST
Temp
°C
Wind Pressure Rain since
9am
mm
Weather Cloud Vis
km
Sea
Height
m
Swell
Dir  Spd
kts
Gust
kts
hPa Trend Height
m
Period
s
Dir
20/11:30pm 26.7 CALM 0 2 1009.5 - - - - - - - - -
20/11:00pm 26.7 NE 1 3 1009.4 - - - - - - - - -
20/10:30pm 26.8 CALM 0 2 1009.9 - - - - - - - - -
20/10:00pm 26.8 NNE 1 3 1010.1 - - - - - - - - -
20/09:30pm 26.7 NE 2 3 1009.9 - - - - - - - - -
20/09:00pm 26.9 NE 1 3 1009.8 - - - - - - - - -
20/08:30pm 26.7 CALM 0 2 1009.7 - - - - - - - - -
20/08:00pm 26.7 CALM 0 3 1009.3 - - - - - - - - -
20/07:30pm 26.7 CALM 0 3 1009.0 - - - - - - - - -
20/07:00pm 26.8 NE 1 4 1008.6 - - - - - - - - -
20/06:30pm 26.9 NNE 8 11 1008.5 - - - - - - - - -
20/06:00pm 26.8 ENE 1 11 1008.0 - - - - - - - - -
20/05:30pm 27.1 E 8 10 1007.9 - - - - - - - - -
20/05:00pm 27.1 E 8 9 1007.9 - - - - - - - - -
20/04:30pm 27.0 E 8 9 1007.7 - - - - - - - - -
20/04:00pm 27.1 E 1 3 1007.7 - - - - - - - - -
20/03:30pm 27.1 E 1 3 1007.9 - - - - - - - - -
20/03:00pm 27.0 CALM 0 5 1008.1 - - - - - - - - -
20/02:30pm 27.0 CALM 0 2 1008.4 - - - - - - - - -
20/02:00pm 27.0 CALM 0 3 1008.5 - - - - - - - - -
20/01:30pm 27.0 CALM 0 2 1009.1 - - - - - - - - -
20/01:00pm 27.1 ENE 5 6 1009.3 - - - - - - - - -
20/12:30pm 27.1 E 4 5 1009.7 - - - - - - - - -
20/12:00pm 27.0 E 5 7 1009.6 - - - - - - - - -
20/11:30am 27.0 E 6 7 1009.7 - - - - - - - - -
20/11:00am 27.0 E 7 9 1009.7 - - - - - - - - -
20/10:30am 27.2 E 6 7 1010.1 - - - - - - - - -
20/10:00am 27.3 ENE 6 8 1010.2 - - - - - - - - -
20/09:30am 27.4 ENE 8 10 1010.5 - - - - - - - - -
20/09:00am 27.6 NE 6 9 1010.3 - - - - - - - - -
20/08:30am 27.3 ENE 8 9 1010.3 - - - - - - - - -
20/08:00am 27.2 ENE 9 11 1010.1 - - - - - - - - -
20/07:30am 27.5 ENE 7 9 1010.0 - - - - - - - - -
20/07:00am 27.4 ENE 9 11 1009.8 - - - - - - - - -
20/06:30am 27.4 NE 10 12 1009.7 - - - - - - - - -
20/06:00am 27.3 NE 10 11 1009.4 - - - - - - - - -
20/05:30am 26.9 NE 11 14 1009.1 - - - - - - - - -
20/05:00am 27.0 NE 11 14 1008.9 - - - - - - - - -
20/04:30am 27.0 NE 11 15 1008.6 - - - - - - - - -
20/04:00am 27.1 NE 1 3 1008.4 - - - - - - - - -
20/03:30am 26.8 CALM 0 2 1008.1 - - - - - - - - -
20/03:00am 26.7 CALM 0 3 1008.0 - - - - - - - - -
20/02:30am 26.7 NE 1 3 1008.2 - - - - - - - - -
20/02:00am 26.4 CALM 0 2 1008.4 - - - - - - - - -
20/01:30am 26.7 CALM 0 2 1008.7 - - - - - - - - -
20/01:00am 26.7 CALM 0 3 1008.7 - - - - - - - - -
20/12:30am 26.6 ENE 1 3 1008.8 - - - - - - - - -
20/12:00am 26.9 CALM 0 2 1009.0 - - - - - - - - -
 
Date/Time
EST
Temp
°C
Wind Pressure Rain since
9am
mm
Weather Cloud Vis
km
Sea
Height
m
Swell
Dir  Spd
kts
Gust
kts
hPa Trend Height
m
Period
s
Dir
19/11:30pm 26.8 ENE 1 2 1009.2 - - - - - - - - -
19/11:00pm 26.7 CALM 0 2 1009.3 - - - - - - - - -
19/10:30pm 27.0 E 1 3 1009.9 - - - - - - - - -
19/10:00pm 27.0 CALM 0 2 1010.0 - - - - - - - - -
19/09:30pm 27.2 E 1 3 1009.9 - - - - - - - - -
19/09:00pm 27.0 CALM 0 3 1009.8 - - - - - - - - -
19/08:30pm 27.1 CALM 0 2 1009.7 - - - - - - - - -
19/08:00pm 27.1 E 1 3 1009.4 - - - - - - - - -
19/07:30pm 27.0 E 1 3 1009.1 - - - - - - - - -
19/07:00pm 27.1 ESE 1 3 1008.9 - - - - - - - - -
19/06:30pm 27.3 E 3 11 1008.9 - - - - - - - - -
19/06:00pm 27.1 ESE 10 11 1008.7 - - - - - - - - -
19/05:30pm 27.2 ESE 9 12 1008.6 - - - - - - - - -
19/05:00pm 27.1 SE 10 4 1008.4 - - - - - - - - -
19/04:30pm 27.3 CALM 0 2 1008.5 - - - - - - - - -
19/04:00pm 27.2 CALM 0 2 1008.3 - - - - - - - - -
19/03:30pm 27.2 CALM 0 3 1008.5 - - - - - - - - -
19/03:00pm 27.1 SE 1 9 1008.4 - - - - - - - - -
19/02:30pm 27.0 SE 1 7 1008.8 - - - - - - - - -
19/02:00pm 26.9 CALM 0 4 1008.9 - - - - - - - - -
19/01:30pm 27.0 CALM 0 1 1009.2 - - - - - - - - -
19/01:00pm 26.9 CALM 0 3 1009.2 - - - - - - - - -
19/12:30pm 26.9 CALM 0 5 1009.8 - - - - - - - - -
19/12:00pm 26.9 CALM 0 2 1010.0 - - - - - - - - -
19/11:30am 27.4 CALM 0 4 1010.2 - - - - - - - - -
19/11:00am 27.3 CALM 0 2 1010.2 - - - - - - - - -
19/10:30am 27.5 CALM 0 3 1010.5 - - - - - - - - -
19/10:00am 27.7 NE 1 3 1010.6 - - - - - - - - -
19/09:30am 27.2 NE 1 3 1010.8 - - - - - - - - -
19/09:00am 27.2 CALM 0 2 1010.8 - - - - - - - - -
19/08:30am 27.2 ENE 1 2 1010.9 - - - - - - - - -
19/08:00am 27.2 CALM 0 2 1010.9 - - - - - - - - -

Other Formats:

Comma delimited format used in spreadsheet applications
http://www.bom.gov.au/fwo/IDQ60701/IDQ60701.94393.axf

JavaScript Object Notation format (JSON) in row-major order
http://www.bom.gov.au/fwo/IDQ60701/IDQ60701.94393.json